Flight Track Log - Related Links

Times and Time Zones

All times are in EDT time to prevent confusion due to time zone crossing. See the EJA922 flight status page for this flight to view local times or setup timezone preferences in your user account.

Time Position Orientation Groundspeed Altitude Reporting Facility
EDT Latitude Longitude Course Direction KTS MPH feet Rate Location/Type
Tue 10:11:31 AM 44.9000 -93.2833 260° West 217 250 3,900  Level Minneapolis TRACON
Tue 10:12:51 AM 44.8836 -93.4103 260° West 261 300 7,200 2,493 Climbing Minneapolis Center
Tue 10:13:53 AM 44.8494 -93.4978 241° Southwest 275 316 9,800 2,341 Climbing Minneapolis Center
Tue 10:14:54 AM 44.7636 -93.5164 189° South 320 368 12,000 2,293 Climbing Minneapolis Center
Tue 10:15:56 AM 44.6747 -93.5458 193° South 331 381 14,500 2,323 Climbing Minneapolis Center
Tue 10:16:58 AM 44.5586 -93.5817 192° South 361 415 16,800 1,839 Climbing Minneapolis Center
Tue 10:18:00 AM 44.4781 -93.6069 193° South 371 427 18,300 1,839 Climbing Minneapolis Center
Tue 10:19:02 AM 44.3622 -93.6719 202° Southwest 378 435 20,600 1,790 Climbing Minneapolis Center
Tue 10:20:04 AM 44.2694 -93.7467 210° Southwest 384 442 22,000 1,317 Climbing Minneapolis Center
Tue 10:21:05 AM 44.1742 -93.8228 210° Southwest 391 450 23,300 1,317 Climbing Minneapolis Center
Tue 10:22:07 AM 44.0764 -93.9008 210° Southwest 403 464 24,700 1,368 Climbing Minneapolis Center
Tue 10:23:21 AM 43.9578 -93.9969 210° Southwest 410 472 26,400 1,456 Climbing Minneapolis Center
Tue 10:24:23 AM 43.8364 -94.0928 210° Southwest 418 481 28,000 1,306 Climbing Minneapolis Center
Tue 10:25:25 AM 43.7336 -94.1728 209° Southwest 422 486 29,100 1,065 Climbing Minneapolis Center
Tue 10:26:27 AM 43.6189 -94.2269 199° South 449 517 30,200 1,161 Climbing Minneapolis Center
Tue 10:27:29 AM 43.4950 -94.2361 183° South 453 521 31,500 871 Climbing Minneapolis Center
Tue 10:28:31 AM 43.3414 -94.2456 183° South 462 532 32,000 242 Climbing Minneapolis Center
Tue 10:29:33 AM 43.2031 -94.2556 183° South 483 556 32,000  Level Minneapolis Center
Tue 10:30:35 AM 43.0597 -94.2661 183° South 504 580 32,000  Level Minneapolis Center
Tue 10:31:36 AM 42.9186 -94.2744 182° South 515 593 32,000  Level Minneapolis Center
Tue 10:32:38 AM 42.7744 -94.2844 183° South 522 601 32,000  Level Minneapolis Center
Tue 10:33:40 AM 42.6308 -94.2961 183° South 524 603 32,000  Level Minneapolis Center
Tue 10:34:42 AM 42.4639 -94.3581 195° South 524 603 32,000  Level Minneapolis Center
Tue 10:35:44 AM 42.3439 -94.4089 197° South 518 596 32,000  Level Minneapolis Center
Tue 10:36:46 AM 42.1764 -94.4781 197° South 521 600 32,000  Level Minneapolis Center
Tue 10:37:48 AM 42.0381 -94.5367 197° South 521 600 32,000  Level Minneapolis Center
Tue 10:38:50 AM 41.8994 -94.5939 197° South 519 597 32,000  Level Minneapolis Center
Tue 10:39:52 AM 41.7611 -94.6514 197° South 519 597 32,000  Level Minneapolis Center
Tue 10:40:53 AM 41.6228 -94.7092 197° South 518 596 32,000  Level Minneapolis Center
Tue 10:41:55 AM 41.4847 -94.7669 197° South 518 596 32,000  Level Minneapolis Center
Tue 10:42:57 AM 41.3469 -94.8228 197° South 516 594 32,000 -145 Level Minneapolis Center
Tue 10:43:59 AM 41.2103 -94.8794 197° South 513 590 31,700 -677 Descending Minneapolis Center
Tue 10:45:01 AM 41.0447 -94.9467 197° South 514 592 30,600 -1,016 Descending Minneapolis Center
Tue 10:46:03 AM 40.9083 -95.0019 197° South 512 589 29,600 -1,161 Descending Minneapolis Center
Tue 10:47:05 AM 40.7736 -95.0567 197° South 508 585 28,200 -1,561 Descending Minneapolis Center
Tue 10:48:06 AM 40.6411 -95.1100 197° South 502 578 26,400 -1,902 Descending Minneapolis Center
Tue 10:49:08 AM 40.5125 -95.1611 197° South 491 565 24,300 -1,941 Descending Minneapolis Center
Tue 10:50:22 AM 40.3894 -95.2103 197° South 479 551 22,000 -2,027 Descending Minneapolis Center
Tue 10:51:36 AM 40.2475 -95.2678 197° South 460 529 19,300 -2,255 Descending Minneapolis Center
Tue 10:52:51 AM 40.0950 -95.3283 197° South 419 482 16,400 -2,321 Descending Minneapolis Center
Tue 10:53:53 AM 39.9697 -95.3769 197° South 397 457 14,000 -2,129 Descending Minneapolis Center
Tue 10:54:55 AM 39.8647 -95.4019 190° South 391 450 12,000 -1,756 Descending Minneapolis Center
Tue 10:55:56 AM 39.7742 -95.3417 153° Southeast 374 430 10,400 -889 Descending Minneapolis Center
Tue 10:57:10 AM 39.6994 -95.2606 140° Southeast 357 411 10,000 -219 Descending Minneapolis Center
Tue 10:58:13 AM 39.6294 -95.1178 122° Southeast 361 415 9,900 -48 Descending Minneapolis Center
Tue 10:59:14 AM 39.5697 -94.9994 123° Southeast 385 443 9,900 -49 Level Minneapolis Center
Tue 11:00:16 AM 39.5089 -94.8806 124° Southeast 396 456 9,800 -290 Descending Minneapolis Center
Tue 11:01:18 AM 39.4614 -94.7839 122° Southeast 340 391 9,300 -1,500 Descending Minneapolis Center
Tue 11:02:20 AM 39.4200 -94.7019 123° Southeast 288 331 6,700 -2,095 Descending Minneapolis Center
Tue 11:03:24 AM 39.3500 -94.6167 137° Southeast 266 306 4,900 -1,597 Descending Kansas City TRACON
Tue 11:04:24 AM 39.3000 -94.5500 134° Southeast 244 281 3,400 -952 Descending Kansas City TRACON
Tue 11:05:30 AM 39.2500 -94.5500 180° South 155 178 2,900 -496 Descending Kansas City TRACON
Tue 11:06:25 AM 39.2167 -94.5667 201° Southwest 130 150 2,400 -678 Descending Kansas City TRACON
Tue 11:07:25 AM 39.1667 -94.5833 194° South 131 151 1,600 -622 Descending Kansas City TRACON
Tue 11:08:40 AM 39.1353 -94.5908 190° South 129 148 1,000 -480 Descending Kansas City Center

Login

Don't have an account? Register now (free) for customized features, flight alerts, and more!